sensor_id;sensor_type;location;lat;lon;timestamp;temperature;humidity
11609;DHT22;5860;52.018;8.536;2022-08-03T00:00:23;19.70;99.90
11609;DHT22;5860;52.018;8.536;2022-08-03T00:02:52;19.70;99.90
11609;DHT22;5860;52.018;8.536;2022-08-03T00:05:19;19.80;99.90
11609;DHT22;5860;52.018;8.536;2022-08-03T00:07:46;19.90;99.90
11609;DHT22;5860;52.018;8.536;2022-08-03T00:10:15;19.80;99.90
11609;DHT22;5860;52.018;8.536;2022-08-03T00:12:42;19.80;99.90
11609;DHT22;5860;52.018;8.536;2022-08-03T00:15:09;19.90;99.90
11609;DHT22;5860;52.018;8.536;2022-08-03T00:17:42;19.80;99.90
11609;DHT22;5860;52.018;8.536;2022-08-03T00:20:20;19.80;99.90
11609;DHT22;5860;52.018;8.536;2022-08-03T00:22:48;19.80;99.90
11609;DHT22;5860;52.018;8.536;2022-08-03T00:25:15;19.90;99.90
11609;DHT22;5860;52.018;8.536;2022-08-03T00:27:42;19.80;99.90
11609;DHT22;5860;52.018;8.536;2022-08-03T00:30:09;19.80;99.90
11609;DHT22;5860;52.018;8.536;2022-08-03T00:32:36;19.80;99.90
11609;DHT22;5860;52.018;8.536;2022-08-03T00:35:09;19.90;99.90
11609;DHT22;5860;52.018;8.536;2022-08-03T00:37:57;20.00;99.90
11609;DHT22;5860;52.018;8.536;2022-08-03T00:40:24;20.20;99.90
11609;DHT22;5860;52.018;8.536;2022-08-03T00:42:53;20.20;99.90
11609;DHT22;5860;52.018;8.536;2022-08-03T00:45:35;20.30;99.90
11609;DHT22;5860;52.018;8.536;2022-08-03T00:48:03;20.30;99.90
11609;DHT22;5860;52.018;8.536;2022-08-03T00:50:33;20.40;99.90
11609;DHT22;5860;52.018;8.536;2022-08-03T00:53:02;20.30;99.90
11609;DHT22;5860;52.018;8.536;2022-08-03T00:55:30;20.30;99.90
11609;DHT22;5860;52.018;8.536;2022-08-03T00:57:58;20.30;99.90
11609;DHT22;5860;52.018;8.536;2022-08-03T01:00:27;20.30;99.90
11609;DHT22;5860;52.018;8.536;2022-08-03T01:02:54;20.20;99.90
11609;DHT22;5860;52.018;8.536;2022-08-03T01:05:21;20.20;99.90
11609;DHT22;5860;52.018;8.536;2022-08-03T01:08:10;20.20;99.90
11609;DHT22;5860;52.018;8.536;2022-08-03T01:16:58;20.00;99.90
11609;DHT22;5860;52.018;8.536;2022-08-03T01:20:01;20.10;99.90
11609;DHT22;5860;52.018;8.536;2022-08-03T01:25:13;20.30;99.90
11609;DHT22;5860;52.018;8.536;2022-08-03T01:30:40;20.30;99.90
11609;DHT22;5860;52.018;8.536;2022-08-03T01:33:16;20.40;99.90
11609;DHT22;5860;52.018;8.536;2022-08-03T01:38:40;20.40;99.90
11609;DHT22;5860;52.018;8.536;2022-08-03T01:41:11;20.30;99.90
11609;DHT22;5860;52.018;8.536;2022-08-03T01:43:41;20.30;99.90
11609;DHT22;5860;52.018;8.536;2022-08-03T01:46:31;20.30;99.90
11609;DHT22;5860;52.018;8.536;2022-08-03T01:48:59;20.20;99.90
11609;DHT22;5860;52.018;8.536;2022-08-03T01:51:37;20.20;99.90
11609;DHT22;5860;52.018;8.536;2022-08-03T01:54:25;20.30;99.90
11609;DHT22;5860;52.018;8.536;2022-08-03T01:56:56;20.10;99.90
11609;DHT22;5860;52.018;8.536;2022-08-03T01:59:24;20.10;99.90
11609;DHT22;5860;52.018;8.536;2022-08-03T02:01:52;20.20;99.90
11609;DHT22;5860;52.018;8.536;2022-08-03T02:04:41;20.20;99.90
11609;DHT22;5860;52.018;8.536;2022-08-03T02:07:09;20.10;99.90
11609;DHT22;5860;52.018;8.536;2022-08-03T02:09:39;20.10;99.90
11609;DHT22;5860;52.018;8.536;2022-08-03T02:12:10;20.10;99.90
11609;DHT22;5860;52.018;8.536;2022-08-03T02:14:39;20.00;99.90
11609;DHT22;5860;52.018;8.536;2022-08-03T02:17:06;20.00;99.90
11609;DHT22;5860;52.018;8.536;2022-08-03T02:19:36;20.00;99.90
11609;DHT22;5860;52.018;8.536;2022-08-03T02:22:04;20.00;99.90
11609;DHT22;5860;52.018;8.536;2022-08-03T02:24:31;19.90;99.90
11609;DHT22;5860;52.018;8.536;2022-08-03T02:26:59;20.00;99.90
11609;DHT22;5860;52.018;8.536;2022-08-03T02:29:30;20.10;99.90
11609;DHT22;5860;52.018;8.536;2022-08-03T02:32:09;20.00;99.90
11609;DHT22;5860;52.018;8.536;2022-08-03T02:34:39;20.10;99.90
11609;DHT22;5860;52.018;8.536;2022-08-03T02:37:09;20.10;99.90
11609;DHT22;5860;52.018;8.536;2022-08-03T02:39:38;20.00;99.90
11609;DHT22;5860;52.018;8.536;2022-08-03T02:42:08;20.00;99.90
11609;DHT22;5860;52.018;8.536;2022-08-03T02:44:39;20.10;99.90
11609;DHT22;5860;52.018;8.536;2022-08-03T02:47:10;20.00;99.90
11609;DHT22;5860;52.018;8.536;2022-08-03T02:49:40;20.00;99.90
11609;DHT22;5860;52.018;8.536;2022-08-03T02:52:20;20.00;99.90
11609;DHT22;5860;52.018;8.536;2022-08-03T02:54:48;20.00;99.90
11609;DHT22;5860;52.018;8.536;2022-08-03T02:57:18;20.00;99.90
11609;DHT22;5860;52.018;8.536;2022-08-03T02:59:46;20.00;99.90
11609;DHT22;5860;52.018;8.536;2022-08-03T03:02:14;20.00;99.90
11609;DHT22;5860;52.018;8.536;2022-08-03T03:04:43;20.00;99.90
11609;DHT22;5860;52.018;8.536;2022-08-03T03:07:31;20.00;99.90
11609;DHT22;5860;52.018;8.536;2022-08-03T03:10:18;20.00;99.90
11609;DHT22;5860;52.018;8.536;2022-08-03T03:12:48;20.10;99.90
11609;DHT22;5860;52.018;8.536;2022-08-03T03:15:16;20.00;99.90
11609;DHT22;5860;52.018;8.536;2022-08-03T03:17:44;19.90;99.90
11609;DHT22;5860;52.018;8.536;2022-08-03T03:20:14;20.00;99.90
11609;DHT22;5860;52.018;8.536;2022-08-03T03:22:57;19.90;99.90
11609;DHT22;5860;52.018;8.536;2022-08-03T03:25:27;20.00;99.90
11609;DHT22;5860;52.018;8.536;2022-08-03T03:27:55;20.00;99.90
11609;DHT22;5860;52.018;8.536;2022-08-03T03:30:23;20.00;99.90
11609;DHT22;5860;52.018;8.536;2022-08-03T03:32:51;20.00;99.90
11609;DHT22;5860;52.018;8.536;2022-08-03T03:35:18;20.00;99.90
11609;DHT22;5860;52.018;8.536;2022-08-03T03:37:45;20.00;99.90
11609;DHT22;5860;52.018;8.536;2022-08-03T03:40:13;20.00;99.90
11609;DHT22;5860;52.018;8.536;2022-08-03T03:42:40;20.00;99.90
11609;DHT22;5860;52.018;8.536;2022-08-03T03:45:07;20.10;99.90
11609;DHT22;5860;52.018;8.536;2022-08-03T03:47:34;20.10;99.90
11609;DHT22;5860;52.018;8.536;2022-08-03T03:50:06;20.10;99.90
11609;DHT22;5860;52.018;8.536;2022-08-03T03:52:33;20.10;99.90
11609;DHT22;5860;52.018;8.536;2022-08-03T03:55:00;20.10;99.90
11609;DHT22;5860;52.018;8.536;2022-08-03T03:57:27;20.10;99.90
11609;DHT22;5860;52.018;8.536;2022-08-03T03:59:55;20.10;99.90
11609;DHT22;5860;52.018;8.536;2022-08-03T04:02:22;20.20;99.90
11609;DHT22;5860;52.018;8.536;2022-08-03T04:04:49;20.20;99.90
11609;DHT22;5860;52.018;8.536;2022-08-03T04:08:00;20.20;99.90
11609;DHT22;5860;52.018;8.536;2022-08-03T04:11:36;20.20;99.90
11609;DHT22;5860;52.018;8.536;2022-08-03T04:13:54;20.20;99.90
11609;DHT22;5860;52.018;8.536;2022-08-03T04:16:30;20.20;99.90
11609;DHT22;5860;52.018;8.536;2022-08-03T04:19:04;20.30;99.90
11609;DHT22;5860;52.018;8.536;2022-08-03T04:21:35;20.30;99.90
11609;DHT22;5860;52.018;8.536;2022-08-03T04:24:05;20.40;99.90
11609;DHT22;5860;52.018;8.536;2022-08-03T04:26:36;20.50;99.90
11609;DHT22;5860;52.018;8.536;2022-08-03T04:29:05;20.60;99.90
11609;DHT22;5860;52.018;8.536;2022-08-03T04:31:34;20.70;99.90
11609;DHT22;5860;52.018;8.536;2022-08-03T04:34:02;20.80;99.90
11609;DHT22;5860;52.018;8.536;2022-08-03T04:36:32;20.90;99.90
11609;DHT22;5860;52.018;8.536;2022-08-03T04:39:02;21.00;99.90
11609;DHT22;5860;52.018;8.536;2022-08-03T04:41:30;21.20;99.90
11609;DHT22;5860;52.018;8.536;2022-08-03T04:44:18;23.00;99.90
11609;DHT22;5860;52.018;8.536;2022-08-03T04:46:55;24.40;99.90
11609;DHT22;5860;52.018;8.536;2022-08-03T04:49:22;24.00;99.90
11609;DHT22;5860;52.018;8.536;2022-08-03T04:51:49;24.60;99.90
11609;DHT22;5860;52.018;8.536;2022-08-03T04:54:16;25.80;99.90
11609;DHT22;5860;52.018;8.536;2022-08-03T04:56:43;26.90;99.90
11609;DHT22;5860;52.018;8.536;2022-08-03T04:59:11;26.80;99.90
11609;DHT22;5860;52.018;8.536;2022-08-03T05:01:39;27.30;99.90
11609;DHT22;5860;52.018;8.536;2022-08-03T05:04:07;27.70;99.90
11609;DHT22;5860;52.018;8.536;2022-08-03T05:06:34;28.30;99.90
11609;DHT22;5860;52.018;8.536;2022-08-03T05:09:06;29.20;99.90
11609;DHT22;5860;52.018;8.536;2022-08-03T05:11:34;30.20;99.90
11609;DHT22;5860;52.018;8.536;2022-08-03T05:14:00;29.40;99.90
11609;DHT22;5860;52.018;8.536;2022-08-03T05:16:27;29.80;99.90
11609;DHT22;5860;52.018;8.536;2022-08-03T05:18:54;30.80;99.90
11609;DHT22;5860;52.018;8.536;2022-08-03T05:21:21;30.20;99.80
11609;DHT22;5860;52.018;8.536;2022-08-03T05:23:48;31.20;99.30
11609;DHT22;5860;52.018;8.536;2022-08-03T05:26:14;30.60;96.10
11609;DHT22;5860;52.018;8.536;2022-08-03T05:28:42;31.20;96.90
11609;DHT22;5860;52.018;8.536;2022-08-03T05:31:17;32.50;93.70
11609;DHT22;5860;52.018;8.536;2022-08-03T05:33:44;32.90;92.20
11609;DHT22;5860;52.018;8.536;2022-08-03T05:36:11;33.30;90.10
11609;DHT22;5860;52.018;8.536;2022-08-03T05:38:38;33.60;87.20
11609;DHT22;5860;52.018;8.536;2022-08-03T05:41:05;34.00;82.30
11609;DHT22;5860;52.018;8.536;2022-08-03T05:43:49;33.60;80.50
11609;DHT22;5860;52.018;8.536;2022-08-03T05:46:17;33.00;79.10
11609;DHT22;5860;52.018;8.536;2022-08-03T05:48:43;31.60;83.70
11609;DHT22;5860;52.018;8.536;2022-08-03T05:51:11;33.30;76.00
11609;DHT22;5860;52.018;8.536;2022-08-03T05:53:42;33.00;78.00
11609;DHT22;5860;52.018;8.536;2022-08-03T05:56:09;30.50;87.00
11609;DHT22;5860;52.018;8.536;2022-08-03T05:58:44;29.20;94.80
11609;DHT22;5860;52.018;8.536;2022-08-03T06:01:12;30.50;94.30
11609;DHT22;5860;52.018;8.536;2022-08-03T06:03:39;31.00;90.40
11609;DHT22;5860;52.018;8.536;2022-08-03T06:06:06;29.90;92.10
11609;DHT22;5860;52.018;8.536;2022-08-03T06:08:34;30.60;91.90
11609;DHT22;5860;52.018;8.536;2022-08-03T06:11:01;31.70;83.80
11609;DHT22;5860;52.018;8.536;2022-08-03T06:13:27;30.60;87.60
11609;DHT22;5860;52.018;8.536;2022-08-03T06:15:55;31.00;90.00
11609;DHT22;5860;52.018;8.536;2022-08-03T06:18:21;30.90;87.50
11609;DHT22;5860;52.018;8.536;2022-08-03T06:20:51;30.70;89.90
11609;DHT22;5860;52.018;8.536;2022-08-03T06:23:18;29.80;92.20
11609;DHT22;5860;52.018;8.536;2022-08-03T06:25:45;30.50;91.70
11609;DHT22;5860;52.018;8.536;2022-08-03T06:28:12;31.60;87.70
11609;DHT22;5860;52.018;8.536;2022-08-03T06:31:04;32.80;84.70
11609;DHT22;5860;52.018;8.536;2022-08-03T06:33:32;33.60;78.60
11609;DHT22;5860;52.018;8.536;2022-08-03T06:36:19;31.80;79.20
11609;DHT22;5860;52.018;8.536;2022-08-03T06:38:46;31.50;82.00
11609;DHT22;5860;52.018;8.536;2022-08-03T06:41:13;33.30;76.60
11609;DHT22;5860;52.018;8.536;2022-08-03T06:43:40;34.80;70.20
11609;DHT22;5860;52.018;8.536;2022-08-03T06:46:27;35.10;67.00
11609;DHT22;5860;52.018;8.536;2022-08-03T06:48:54;33.30;67.90
11609;DHT22;5860;52.018;8.536;2022-08-03T06:51:22;34.20;68.40
11609;DHT22;5860;52.018;8.536;2022-08-03T06:54:09;34.20;66.10
11609;DHT22;5860;52.018;8.536;2022-08-03T06:56:36;34.00;67.60
11609;DHT22;5860;52.018;8.536;2022-08-03T06:59:03;32.10;72.80
11609;DHT22;5860;52.018;8.536;2022-08-03T07:01:30;32.00;74.90
11609;DHT22;5860;52.018;8.536;2022-08-03T07:03:57;30.90;79.50
11609;DHT22;5860;52.018;8.536;2022-08-03T07:06:23;33.50;72.30
11609;DHT22;5860;52.018;8.536;2022-08-03T07:08:50;32.80;70.50
11609;DHT22;5860;52.018;8.536;2022-08-03T07:11:23;33.90;70.20
11609;DHT22;5860;52.018;8.536;2022-08-03T07:13:50;34.40;67.50
11609;DHT22;5860;52.018;8.536;2022-08-03T07:16:16;34.60;66.00
11609;DHT22;5860;52.018;8.536;2022-08-03T07:18:44;34.40;65.70
11609;DHT22;5860;52.018;8.536;2022-08-03T07:21:11;34.10;64.20
11609;DHT22;5860;52.018;8.536;2022-08-03T07:23:38;36.20;59.40
11609;DHT22;5860;52.018;8.536;2022-08-03T07:26:05;34.70;59.40
11609;DHT22;5860;52.018;8.536;2022-08-03T07:28:32;35.80;58.50
11609;DHT22;5860;52.018;8.536;2022-08-03T07:30:59;34.90;58.70
11609;DHT22;5860;52.018;8.536;2022-08-03T07:33:26;36.30;55.90
11609;DHT22;5860;52.018;8.536;2022-08-03T07:35:53;36.90;56.00
11609;DHT22;5860;52.018;8.536;2022-08-03T07:38:20;36.20;56.60
11609;DHT22;5860;52.018;8.536;2022-08-03T07:40:47;36.60;57.20
11609;DHT22;5860;52.018;8.536;2022-08-03T07:43:13;34.10;61.70
11609;DHT22;5860;52.018;8.536;2022-08-03T07:45:40;33.30;65.80
11609;DHT22;5860;52.018;8.536;2022-08-03T07:48:07;33.60;65.40
11609;DHT22;5860;52.018;8.536;2022-08-03T07:50:38;33.80;65.30
11609;DHT22;5860;52.018;8.536;2022-08-03T07:53:05;34.60;62.50
11609;DHT22;5860;52.018;8.536;2022-08-03T07:55:31;34.60;63.20
11609;DHT22;5860;52.018;8.536;2022-08-03T07:58:10;35.50;59.00
11609;DHT22;5860;52.018;8.536;2022-08-03T08:00:49;34.30;64.30
11609;DHT22;5860;52.018;8.536;2022-08-03T08:03:18;34.50;61.90
11609;DHT22;5860;52.018;8.536;2022-08-03T08:05:48;33.90;59.90
11609;DHT22;5860;52.018;8.536;2022-08-03T08:08:14;33.80;65.10
11609;DHT22;5860;52.018;8.536;2022-08-03T08:10:41;32.60;71.20
11609;DHT22;5860;52.018;8.536;2022-08-03T08:13:23;32.00;78.40
11609;DHT22;5860;52.018;8.536;2022-08-03T08:15:50;31.80;76.20
11609;DHT22;5860;52.018;8.536;2022-08-03T08:18:17;33.10;72.50
11609;DHT22;5860;52.018;8.536;2022-08-03T08:20:44;32.60;71.00
11609;DHT22;5860;52.018;8.536;2022-08-03T08:23:11;31.00;81.90
11609;DHT22;5860;52.018;8.536;2022-08-03T08:25:58;31.10;83.50
11609;DHT22;5860;52.018;8.536;2022-08-03T08:28:24;30.70;87.70
11609;DHT22;5860;52.018;8.536;2022-08-03T08:30:59;30.00;92.00
11609;DHT22;5860;52.018;8.536;2022-08-03T08:33:27;29.50;95.60
11609;DHT22;5860;52.018;8.536;2022-08-03T08:36:08;29.20;99.90
11609;DHT22;5860;52.018;8.536;2022-08-03T08:38:40;29.10;99.90
11609;DHT22;5860;52.018;8.536;2022-08-03T08:41:09;28.80;99.90
11609;DHT22;5860;52.018;8.536;2022-08-03T08:43:37;28.80;99.90
11609;DHT22;5860;52.018;8.536;2022-08-03T08:46:04;28.70;99.90
11609;DHT22;5860;52.018;8.536;2022-08-03T08:48:35;28.50;99.90
11609;DHT22;5860;52.018;8.536;2022-08-03T08:51:05;28.70;99.90
11609;DHT22;5860;52.018;8.536;2022-08-03T08:53:36;28.60;99.90
11609;DHT22;5860;52.018;8.536;2022-08-03T08:56:04;28.50;99.90
11609;DHT22;5860;52.018;8.536;2022-08-03T08:58:36;28.50;99.90
11609;DHT22;5860;52.018;8.536;2022-08-03T09:01:04;28.50;99.90
11609;DHT22;5860;52.018;8.536;2022-08-03T09:03:34;28.40;99.90
11609;DHT22;5860;52.018;8.536;2022-08-03T09:06:03;28.40;99.90
11609;DHT22;5860;52.018;8.536;2022-08-03T09:08:32;28.40;99.90
11609;DHT22;5860;52.018;8.536;2022-08-03T09:10:59;28.30;99.90
11609;DHT22;5860;52.018;8.536;2022-08-03T09:13:26;28.40;99.90
11609;DHT22;5860;52.018;8.536;2022-08-03T09:16:13;28.90;99.90
11609;DHT22;5860;52.018;8.536;2022-08-03T09:18:43;29.50;99.90
11609;DHT22;5860;52.018;8.536;2022-08-03T09:21:16;30.00;99.90
11609;DHT22;5860;52.018;8.536;2022-08-03T09:24:01;30.10;99.90
11609;DHT22;5860;52.018;8.536;2022-08-03T09:26:33;30.70;99.90
11609;DHT22;5860;52.018;8.536;2022-08-03T09:31:44;32.30;95.50
11609;DHT22;5860;52.018;8.536;2022-08-03T09:34:14;32.70;93.10
11609;DHT22;5860;52.018;8.536;2022-08-03T09:36:43;31.50;93.10
11609;DHT22;5860;52.018;8.536;2022-08-03T09:39:16;31.50;94.20
11609;DHT22;5860;52.018;8.536;2022-08-03T09:42:04;31.80;93.90
11609;DHT22;5860;52.018;8.536;2022-08-03T09:44:43;31.10;94.90
11609;DHT22;5860;52.018;8.536;2022-08-03T09:47:12;30.70;96.10
11609;DHT22;5860;52.018;8.536;2022-08-03T09:49:41;30.50;98.50
11609;DHT22;5860;52.018;8.536;2022-08-03T09:52:18;30.80;98.50
11609;DHT22;5860;52.018;8.536;2022-08-03T09:55:12;31.30;96.30
11609;DHT22;5860;52.018;8.536;2022-08-03T09:58:04;31.60;95.80
11609;DHT22;5860;52.018;8.536;2022-08-03T10:00:32;31.20;96.30
11609;DHT22;5860;52.018;8.536;2022-08-03T10:03:03;30.80;97.80
11609;DHT22;5860;52.018;8.536;2022-08-03T10:05:31;31.00;98.70
11609;DHT22;5860;52.018;8.536;2022-08-03T10:07:58;31.20;98.10
11609;DHT22;5860;52.018;8.536;2022-08-03T10:10:25;30.80;97.60
11609;DHT22;5860;52.018;8.536;2022-08-03T10:12:57;31.00;97.30
11609;DHT22;5860;52.018;8.536;2022-08-03T10:15:26;30.50;97.00
11609;DHT22;5860;52.018;8.536;2022-08-03T10:18:13;31.20;95.20
11609;DHT22;5860;52.018;8.536;2022-08-03T10:20:51;30.90;95.20
11609;DHT22;5860;52.018;8.536;2022-08-03T10:23:19;31.80;91.90
11609;DHT22;5860;52.018;8.536;2022-08-03T10:25:51;31.80;88.80
11609;DHT22;5860;52.018;8.536;2022-08-03T10:28:20;31.60;89.90
11609;DHT22;5860;52.018;8.536;2022-08-03T10:30:49;31.70;89.40
11609;DHT22;5860;52.018;8.536;2022-08-03T10:33:23;31.90;84.00
11609;DHT22;5860;52.018;8.536;2022-08-03T10:36:12;31.90;85.70
11609;DHT22;5860;52.018;8.536;2022-08-03T10:38:57;32.30;83.80
11609;DHT22;5860;52.018;8.536;2022-08-03T10:41:28;32.50;82.90
11609;DHT22;5860;52.018;8.536;2022-08-03T10:44:04;32.30;80.40
11609;DHT22;5860;52.018;8.536;2022-08-03T10:46:33;31.70;81.80
11609;DHT22;5860;52.018;8.536;2022-08-03T10:49:07;32.00;81.60
11609;DHT22;5860;52.018;8.536;2022-08-03T10:51:34;32.60;77.50
11609;DHT22;5860;52.018;8.536;2022-08-03T10:54:04;32.40;78.00
11609;DHT22;5860;52.018;8.536;2022-08-03T10:56:39;31.60;79.80
11609;DHT22;5860;52.018;8.536;2022-08-03T11:02:14;31.70;79.90
11609;DHT22;5860;52.018;8.536;2022-08-03T11:04:42;31.30;78.80
11609;DHT22;5860;52.018;8.536;2022-08-03T11:07:17;31.40;80.00
11609;DHT22;5860;52.018;8.536;2022-08-03T11:09:53;31.50;79.70
11609;DHT22;5860;52.018;8.536;2022-08-03T11:12:25;31.30;80.10
11609;DHT22;5860;52.018;8.536;2022-08-03T11:15:00;31.10;80.90
11609;DHT22;5860;52.018;8.536;2022-08-03T11:17:27;31.60;80.00
11609;DHT22;5860;52.018;8.536;2022-08-03T11:19:54;31.60;80.50
11609;DHT22;5860;52.018;8.536;2022-08-03T11:22:24;30.70;84.00
11609;DHT22;5860;52.018;8.536;2022-08-03T11:27:24;30.70;85.60
11609;DHT22;5860;52.018;8.536;2022-08-03T11:29:58;30.60;87.40
11609;DHT22;5860;52.018;8.536;2022-08-03T11:35:31;30.80;87.70
11609;DHT22;5860;52.018;8.536;2022-08-03T11:38:05;31.10;87.30
11609;DHT22;5860;52.018;8.536;2022-08-03T11:40:38;31.00;86.50
11609;DHT22;5860;52.018;8.536;2022-08-03T11:46:08;30.70;87.10
11609;DHT22;5860;52.018;8.536;2022-08-03T11:49:03;31.00;87.60
11609;DHT22;5860;52.018;8.536;2022-08-03T11:51:36;30.80;86.40
11609;DHT22;5860;52.018;8.536;2022-08-03T11:54:05;30.60;90.50
11609;DHT22;5860;52.018;8.536;2022-08-03T11:56:45;30.60;88.50
11609;DHT22;5860;52.018;8.536;2022-08-03T11:59:12;30.70;90.00
11609;DHT22;5860;52.018;8.536;2022-08-03T12:01:46;30.70;86.60
11609;DHT22;5860;52.018;8.536;2022-08-03T12:04:13;30.80;83.90
11609;DHT22;5860;52.018;8.536;2022-08-03T12:06:59;30.60;84.10
11609;DHT22;5860;52.018;8.536;2022-08-03T12:09:27;30.60;84.60
11609;DHT22;5860;52.018;8.536;2022-08-03T12:11:53;30.80;83.20
11609;DHT22;5860;52.018;8.536;2022-08-03T12:14:27;31.00;84.60
11609;DHT22;5860;52.018;8.536;2022-08-03T12:17:15;31.00;84.80
11609;DHT22;5860;52.018;8.536;2022-08-03T12:19:43;31.10;84.10
11609;DHT22;5860;52.018;8.536;2022-08-03T12:22:10;30.90;82.60
11609;DHT22;5860;52.018;8.536;2022-08-03T12:24:41;30.90;82.50
11609;DHT22;5860;52.018;8.536;2022-08-03T12:27:09;30.80;83.00
11609;DHT22;5860;52.018;8.536;2022-08-03T12:29:36;30.80;82.20
11609;DHT22;5860;52.018;8.536;2022-08-03T12:32:03;30.90;82.00
11609;DHT22;5860;52.018;8.536;2022-08-03T12:34:47;30.80;82.10
11609;DHT22;5860;52.018;8.536;2022-08-03T12:37:18;30.60;82.30
11609;DHT22;5860;52.018;8.536;2022-08-03T12:39:56;30.70;83.10
11609;DHT22;5860;52.018;8.536;2022-08-03T12:42:35;30.60;81.40
11609;DHT22;5860;52.018;8.536;2022-08-03T12:45:23;30.80;81.70
11609;DHT22;5860;52.018;8.536;2022-08-03T12:47:55;30.80;81.90
11609;DHT22;5860;52.018;8.536;2022-08-03T12:50:27;30.80;82.20
11609;DHT22;5860;52.018;8.536;2022-08-03T12:52:55;31.00;81.60
11609;DHT22;5860;52.018;8.536;2022-08-03T12:55:24;31.00;76.60
11609;DHT22;5860;52.018;8.536;2022-08-03T12:57:53;30.90;81.20
11609;DHT22;5860;52.018;8.536;2022-08-03T13:00:20;31.10;79.60
11609;DHT22;5860;52.018;8.536;2022-08-03T13:03:21;31.30;81.30
11609;DHT22;5860;52.018;8.536;2022-08-03T13:06:12;30.80;79.80
11609;DHT22;5860;52.018;8.536;2022-08-03T13:08:39;31.00;80.00
11609;DHT22;5860;52.018;8.536;2022-08-03T13:11:22;31.10;78.70
11609;DHT22;5860;52.018;8.536;2022-08-03T13:14:10;31.10;78.80
11609;DHT22;5860;52.018;8.536;2022-08-03T13:16:46;31.40;78.00
11609;DHT22;5860;52.018;8.536;2022-08-03T13:19:13;31.40;76.90
11609;DHT22;5860;52.018;8.536;2022-08-03T13:21:42;31.50;76.00
11609;DHT22;5860;52.018;8.536;2022-08-03T13:24:29;31.50;76.00
11609;DHT22;5860;52.018;8.536;2022-08-03T13:26:57;31.50;77.30
11609;DHT22;5860;52.018;8.536;2022-08-03T13:29:24;31.60;75.60
11609;DHT22;5860;52.018;8.536;2022-08-03T13:31:51;31.50;74.40
11609;DHT22;5860;52.018;8.536;2022-08-03T13:34:18;31.40;74.30
11609;DHT22;5860;52.018;8.536;2022-08-03T13:36:50;31.60;74.70
11609;DHT22;5860;52.018;8.536;2022-08-03T13:39:35;31.70;72.00
11609;DHT22;5860;52.018;8.536;2022-08-03T13:42:23;31.70;70.90
11609;DHT22;5860;52.018;8.536;2022-08-03T13:44:50;31.70;71.60
11609;DHT22;5860;52.018;8.536;2022-08-03T13:47:16;31.40;72.90
11609;DHT22;5860;52.018;8.536;2022-08-03T13:49:44;31.20;72.80
11609;DHT22;5860;52.018;8.536;2022-08-03T13:52:29;31.50;73.20
11609;DHT22;5860;52.018;8.536;2022-08-03T13:54:55;31.60;71.20
11609;DHT22;5860;52.018;8.536;2022-08-03T13:57:23;31.40;72.70
11609;DHT22;5860;52.018;8.536;2022-08-03T14:00:10;31.50;73.50
11609;DHT22;5860;52.018;8.536;2022-08-03T14:02:37;31.60;71.20
11609;DHT22;5860;52.018;8.536;2022-08-03T14:05:04;31.70;70.10
11609;DHT22;5860;52.018;8.536;2022-08-03T14:07:31;31.80;69.60
11609;DHT22;5860;52.018;8.536;2022-08-03T14:09:59;31.80;70.20
11609;DHT22;5860;52.018;8.536;2022-08-03T14:12:27;32.00;69.60
11609;DHT22;5860;52.018;8.536;2022-08-03T14:14:54;32.00;69.00
11609;DHT22;5860;52.018;8.536;2022-08-03T14:17:26;31.60;70.20
11609;DHT22;5860;52.018;8.536;2022-08-03T14:20:08;31.30;72.30
11609;DHT22;5860;52.018;8.536;2022-08-03T14:22:55;31.20;73.30
11609;DHT22;5860;52.018;8.536;2022-08-03T14:25:22;31.40;71.60
11609;DHT22;5860;52.018;8.536;2022-08-03T14:27:49;31.20;72.20
11609;DHT22;5860;52.018;8.536;2022-08-03T14:30:16;31.40;71.80
11609;DHT22;5860;52.018;8.536;2022-08-03T14:32:43;31.60;70.20
11609;DHT22;5860;52.018;8.536;2022-08-03T14:35:10;31.60;69.90
11609;DHT22;5860;52.018;8.536;2022-08-03T14:37:37;31.40;69.70
11609;DHT22;5860;52.018;8.536;2022-08-03T14:40:05;31.40;70.20
11609;DHT22;5860;52.018;8.536;2022-08-03T14:42:32;31.30;69.90
11609;DHT22;5860;52.018;8.536;2022-08-03T14:44:59;31.40;70.20
11609;DHT22;5860;52.018;8.536;2022-08-03T14:47:34;31.50;69.00
11609;DHT22;5860;52.018;8.536;2022-08-03T14:50:21;31.70;68.40
11609;DHT22;5860;52.018;8.536;2022-08-03T14:53:07;31.50;68.90
11609;DHT22;5860;52.018;8.536;2022-08-03T14:55:34;31.50;68.60
11609;DHT22;5860;52.018;8.536;2022-08-03T14:58:16;31.50;69.90
11609;DHT22;5860;52.018;8.536;2022-08-03T15:00:48;31.70;70.60
11609;DHT22;5860;52.018;8.536;2022-08-03T15:03:16;31.70;69.70
11609;DHT22;5860;52.018;8.536;2022-08-03T15:05:46;31.60;70.50
11609;DHT22;5860;52.018;8.536;2022-08-03T15:08:13;31.50;69.70
11609;DHT22;5860;52.018;8.536;2022-08-03T15:10:40;31.10;70.00
11609;DHT22;5860;52.018;8.536;2022-08-03T15:13:14;31.10;70.60
11609;DHT22;5860;52.018;8.536;2022-08-03T15:15:41;31.00;71.00
11609;DHT22;5860;52.018;8.536;2022-08-03T15:18:08;31.00;71.50
11609;DHT22;5860;52.018;8.536;2022-08-03T15:20:35;31.00;72.70
11609;DHT22;5860;52.018;8.536;2022-08-03T15:23:12;30.90;73.40
11609;DHT22;5860;52.018;8.536;2022-08-03T15:25:39;30.80;75.00
11609;DHT22;5860;52.018;8.536;2022-08-03T15:28:26;30.70;76.10
11609;DHT22;5860;52.018;8.536;2022-08-03T15:30:53;30.90;76.10
11609;DHT22;5860;52.018;8.536;2022-08-03T15:33:20;30.80;76.30
11609;DHT22;5860;52.018;8.536;2022-08-03T15:35:47;30.70;77.20
11609;DHT22;5860;52.018;8.536;2022-08-03T15:38:15;30.60;78.10
11609;DHT22;5860;52.018;8.536;2022-08-03T15:40:42;30.60;79.40
11609;DHT22;5860;52.018;8.536;2022-08-03T15:43:09;30.80;78.90
11609;DHT22;5860;52.018;8.536;2022-08-03T15:45:36;30.90;77.20
11609;DHT22;5860;52.018;8.536;2022-08-03T15:48:06;30.80;76.90
11609;DHT22;5860;52.018;8.536;2022-08-03T15:50:33;31.00;77.10
11609;DHT22;5860;52.018;8.536;2022-08-03T15:53:00;30.90;76.70
11609;DHT22;5860;52.018;8.536;2022-08-03T15:55:27;30.70;76.90
11609;DHT22;5860;52.018;8.536;2022-08-03T15:57:53;30.60;79.50
11609;DHT22;5860;52.018;8.536;2022-08-03T16:00:41;30.60;79.40
11609;DHT22;5860;52.018;8.536;2022-08-03T16:03:09;30.50;78.10
11609;DHT22;5860;52.018;8.536;2022-08-03T16:05:36;30.60;77.50
11609;DHT22;5860;52.018;8.536;2022-08-03T16:08:03;30.60;76.90
11609;DHT22;5860;52.018;8.536;2022-08-03T16:10:34;30.50;78.10
11609;DHT22;5860;52.018;8.536;2022-08-03T16:13:01;30.40;77.30
11609;DHT22;5860;52.018;8.536;2022-08-03T16:15:28;30.40;77.40
11609;DHT22;5860;52.018;8.536;2022-08-03T16:17:55;30.40;78.20
11609;DHT22;5860;52.018;8.536;2022-08-03T16:20:22;30.30;79.60
11609;DHT22;5860;52.018;8.536;2022-08-03T16:23:01;30.50;80.30
11609;DHT22;5860;52.018;8.536;2022-08-03T16:25:38;30.50;79.80
11609;DHT22;5860;52.018;8.536;2022-08-03T16:28:06;30.50;80.60
11609;DHT22;5860;52.018;8.536;2022-08-03T16:30:41;30.50;80.40
11609;DHT22;5860;52.018;8.536;2022-08-03T16:33:09;30.50;81.80
11609;DHT22;5860;52.018;8.536;2022-08-03T16:35:42;30.50;81.20
11609;DHT22;5860;52.018;8.536;2022-08-03T16:38:09;30.40;80.40
11609;DHT22;5860;52.018;8.536;2022-08-03T16:40:43;30.50;80.80